Time;durP1;ratioP1;P1;durP2;ratioP2;P2;SDS_P1;SDS_P2;PMS_P1;PMS_P2;Temp;Humidity;BMP_temperature;BMP_pressure;BME280_temperature;BME280_humidity;BME280_pressure;Samples;Min_cycle;Max_cycle;Signal;HPM_P1;HPM_P2
2022/06/04 00:02:03;;;;;;;3.65;1.75;;;;;;;16.34;53.74;101634.13;5075310;28;20040;-83
2022/06/04 00:04:29;;;;;;;4.47;1.80;;;;;;;16.25;54.34;101639.91;5073715;28;20025;-83
2022/06/04 00:06:54;;;;;;;2.50;1.92;;;;;;;16.23;54.18;101638.50;5057153;28;20029;-83
2022/06/04 00:09:21;;;;;;;4.00;1.57;;;;;;;16.19;54.29;101629.91;5057246;28;20033;-83
2022/06/04 00:17:04;;;;;;;4.78;1.90;;;;;;;16.11;54.41;101622.03;5075004;28;20040;-83
2022/06/04 00:19:29;;;;;;;3.60;1.70;;;;;;;16.09;54.47;101635.97;5073700;28;20067;-83
2022/06/04 00:21:54;;;;;;;3.37;1.63;;;;;;;16.07;54.68;101627.13;5056802;28;20093;-83
2022/06/04 00:24:20;;;;;;;3.83;1.70;;;;;;;16.05;54.18;101621.06;5072838;28;20037;-83
2022/06/04 00:26:45;;;;;;;6.03;1.60;;;;;;;16.03;54.52;101625.94;5073249;28;20538;-83
2022/06/04 00:29:12;;;;;;;4.95;1.60;;;;;;;16.03;54.61;101634.13;5040229;28;20035;-83
2022/06/04 00:31:38;;;;;;;2.90;1.70;;;;;;;16.02;54.53;101629.75;5073360;28;20472;-83
2022/06/04 00:34:05;;;;;;;5.20;1.88;;;;;;;15.99;54.28;101643.91;5074457;28;20036;-83
2022/06/04 00:36:32;;;;;;;1.90;1.40;;;;;;;15.98;54.15;101646.88;5074447;28;20028;-83
2022/06/04 00:38:59;;;;;;;4.33;1.57;;;;;;;15.97;54.31;101646.03;5089963;28;20033;-83
2022/06/04 00:41:45;;;;;;;3.92;1.70;;;;;;;15.99;53.80;101637.56;5039696;28;20047;-83
2022/06/04 00:44:10;;;;;;;4.00;1.83;;;;;;;15.95;54.34;101627.09;5074394;28;20033;-84
2022/06/04 00:46:42;;;;;;;2.20;1.60;;;;;;;15.94;54.04;101617.25;5072830;28;20051;-83
2022/06/04 00:49:21;;;;;;;3.45;1.60;;;;;;;15.91;53.84;101622.31;5073076;28;20107;-83
2022/06/04 00:51:50;;;;;;;3.80;1.92;;;;;;;15.88;53.86;101636.47;5072743;28;20086;-83
2022/06/04 00:54:16;;;;;;;3.57;1.50;;;;;;;15.88;54.35;101648.25;5073162;28;20058;-83
2022/06/04 00:57:00;;;;;;;6.28;1.75;;;;;;;15.90;53.58;101654.34;5073190;28;20024;-83
2022/06/04 00:59:35;;;;;;;4.18;1.77;;;;;;;15.86;54.07;101661.34;5072823;28;20025;-83
2022/06/04 01:02:16;;;;;;;8.88;1.92;;;;;;;15.84;53.74;101658.00;5074098;28;20032;-83
2022/06/04 01:05:05;;;;;;;4.75;1.85;;;;;;;15.84;53.45;101660.75;5072950;28;20392;-83
2022/06/04 01:07:33;;;;;;;4.27;1.80;;;;;;;15.76;54.01;101671.97;5074101;28;20086;-83
2022/06/04 01:10:07;;;;;;;2.90;1.88;;;;;;;15.73;53.96;101684.19;5072558;28;20024;-83
2022/06/04 01:12:48;;;;;;;2.53;1.98;;;;;;;15.70;53.64;101681.09;5072382;28;20024;-83
2022/06/04 01:15:13;;;;;;;3.80;1.80;;;;;;;15.65;54.10;101673.56;5072631;28;20040;-82
2022/06/04 01:17:53;;;;;;;4.10;2.20;;;;;;;15.66;53.27;101674.41;5072567;28;20029;-83
2022/06/04 01:20:43;;;;;;;2.80;1.77;;;;;;;15.61;53.51;101678.66;5072474;28;20059;-82
2022/06/04 01:23:35;;;;;;;4.63;1.88;;;;;;;15.60;53.39;101670.69;5071843;28;20032;-83
2022/06/04 01:26:22;;;;;;;2.67;1.70;;;;;;;15.57;54.14;101680.16;5072620;28;20031;-82
2022/06/04 01:28:53;;;;;;;4.13;1.50;;;;;;;15.55;53.67;101684.22;5072523;28;20067;-82
2022/06/04 01:31:23;;;;;;;2.30;1.58;;;;;;;15.54;54.06;101680.63;5072654;28;20032;-83
2022/06/04 01:33:53;;;;;;;4.22;1.83;;;;;;;15.49;53.73;101685.97;5073126;28;20461;-82
2022/06/04 01:36:38;;;;;;;6.22;1.80;;;;;;;15.47;53.27;101689.97;5072508;28;20059;-83
2022/06/04 01:39:10;;;;;;;6.20;1.77;;;;;;;15.40;53.87;101687.34;5072573;28;20029;-84
2022/06/04 01:41:43;;;;;;;2.40;1.65;;;;;;;15.37;54.03;101682.31;5073509;28;20503;-83
2022/06/04 01:44:20;;;;;;;3.72;1.92;;;;;;;15.36;54.55;101686.09;5073579;28;20071;-83
2022/06/04 01:46:51;;;;;;;2.88;1.85;;;;;;;15.34;54.36;101699.16;5071940;28;20102;-83
2022/06/04 01:49:34;;;;;;;3.75;1.88;;;;;;;15.31;54.14;101711.41;5072347;28;20028;-83
2022/06/04 01:52:08;;;;;;;1.93;1.40;;;;;;;15.28;54.70;101706.38;5073537;28;20031;-83
2022/06/04 01:55:03;;;;;;;2.72;2.00;;;;;;;15.27;54.09;101718.38;5071699;28;20036;-83
2022/06/04 01:57:39;;;;;;;3.28;1.63;;;;;;;15.20;54.52;101718.44;5071065;28;20048;-83
2022/06/04 02:00:16;;;;;;;4.70;2.00;;;;;;;15.19;54.60;101721.38;5071680;28;20063;-83
2022/06/04 02:02:50;;;;;;;5.10;2.00;;;;;;;15.20;54.51;101721.16;5072153;28;20047;-83
2022/06/04 02:05:25;;;;;;;7.90;2.03;;;;;;;15.20;54.77;101714.88;5072109;28;20033;-83
2022/06/04 02:07:54;;;;;;;3.55;1.90;;;;;;;15.17;55.18;101713.41;5076993;28;20025;-83
2022/06/04 02:10:38;;;;;;;5.22;2.00;;;;;;;15.16;54.85;101713.63;5077307;28;20082;-83
2022/06/04 02:13:08;;;;;;;5.35;1.77;;;;;;;15.11;55.35;101717.06;5077394;28;20031;-83
2022/06/04 02:15:50;;;;;;;2.55;1.80;;;;;;;15.08;55.41;101721.06;5076165;28;20127;-83
2022/06/04 02:18:16;;;;;;;3.23;2.00;;;;;;;15.02;56.20;101724.69;5076081;28;20386;-82
2022/06/04 02:20:41;;;;;;;8.98;2.85;;;;;;;15.00;55.38;101721.34;5075845;28;20041;-82
2022/06/04 02:23:07;;;;;;;2.70;2.00;;;;;;;14.98;55.43;101726.19;5075364;28;20033;-83
2022/06/04 02:25:33;;;;;;;3.92;2.20;;;;;;;14.98;55.82;101728.94;5075630;28;20078;-83
2022/06/04 02:27:59;;;;;;;5.87;1.63;;;;;;;14.98;55.76;101719.91;5042718;28;20111;-82
2022/06/04 02:30:35;;;;;;;6.00;2.20;;;;;;;14.95;55.49;101718.44;5042561;28;20040;-83
2022/06/04 02:33:12;;;;;;;4.65;2.00;;;;;;;14.91;55.67;101715.34;5075670;28;20064;-82
2022/06/04 02:35:55;;;;;;;4.27;2.00;;;;;;;14.91;55.73;101709.88;5075633;28;20039;-82
2022/06/04 02:38:26;;;;;;;6.72;2.10;;;;;;;14.88;55.68;101706.72;5076940;28;20021;-83
2022/06/04 02:40:57;;;;;;;3.78;2.30;;;;;;;14.82;56.11;101700.28;5075614;28;20027;-82
2022/06/04 02:43:49;;;;;;;4.80;2.28;;;;;;;14.78;55.79;101699.06;5076948;28;20029;-82
2022/06/04 02:46:23;;;;;;;2.70;1.85;;;;;;;14.78;56.39;101690.00;5107961;28;20488;-82
2022/06/04 02:49:38;;;;;;;4.47;2.17;;;;;;;14.76;55.83;101679.31;5075374;28;20032;-82
2022/06/04 02:52:07;;;;;;;3.70;2.20;;;;;;;14.75;56.53;101666.72;5047235;28;20037;-82
2022/06/04 02:54:50;;;;;;;3.08;2.10;;;;;;;14.72;56.17;101659.81;5074567;28;20017;-82
2022/06/04 02:57:17;;;;;;;6.00;2.30;;;;;;;14.68;57.00;101665.94;5075874;28;20031;-82
2022/06/04 02:59:45;;;;;;;5.22;2.47;;;;;;;14.62;57.19;101664.09;5075280;28;20032;-83
2022/06/04 03:02:14;;;;;;;5.87;2.07;;;;;;;14.60;57.15;101655.25;5075196;28;20481;-82
2022/06/04 03:04:47;;;;;;;4.78;2.33;;;;;;;14.51;57.49;101647.34;5074909;28;20017;-82
2022/06/04 03:07:12;;;;;;;5.22;2.90;;;;;;;14.50;57.95;101653.03;5076180;28;20029;-83
2022/06/04 03:09:38;;;;;;;4.72;2.50;;;;;;;14.48;57.75;101647.81;5074993;28;20028;-83
2022/06/04 03:12:05;;;;;;;5.95;2.53;;;;;;;14.46;58.05;101649.06;5058240;28;20036;-83
2022/06/04 03:14:30;;;;;;;5.57;2.80;;;;;;;14.44;58.10;101657.50;5076147;28;20040;-83
2022/06/04 03:16:56;;;;;;;8.90;2.73;;;;;;;14.39;58.58;101652.69;5057597;28;20036;-82
2022/06/04 03:19:21;;;;;;;6.23;2.67;;;;;;;14.36;58.57;101658.59;5058160;28;20273;-82
2022/06/04 03:21:46;;;;;;;4.60;2.60;;;;;;;14.33;58.96;101659.00;5091792;28;20032;-82
2022/06/04 03:24:13;;;;;;;4.70;2.73;;;;;;;14.32;59.05;101657.38;5074146;28;20186;-83
2022/06/04 03:26:38;;;;;;;9.63;2.70;;;;;;;14.30;59.63;101654.00;5058030;28;20037;-82
2022/06/04 03:29:04;;;;;;;4.73;2.83;;;;;;;14.28;59.12;101647.13;5057909;28;20035;-82
2022/06/04 03:31:30;;;;;;;7.77;2.70;;;;;;;14.29;59.51;101646.88;5057937;28;20123;-82
2022/06/04 03:33:56;;;;;;;7.78;2.92;;;;;;;14.23;60.37;101646.91;5057742;28;20036;-82
2022/06/04 03:36:25;;;;;;;5.32;3.08;;;;;;;14.20;60.10;101649.03;5057850;28;20047;-83
2022/06/04 03:38:51;;;;;;;5.57;2.90;;;;;;;14.20;60.31;101648.19;5075936;28;20032;-82
2022/06/04 03:41:17;;;;;;;5.03;3.10;;;;;;;14.17;60.41;101651.34;5075490;28;20035;-82
2022/06/04 03:43:46;;;;;;;5.93;3.33;;;;;;;14.13;60.57;101659.16;5074363;28;20115;-82
2022/06/04 03:46:13;;;;;;;8.00;3.08;;;;;;;14.15;60.72;101673.41;5090389;28;20084;-82
2022/06/04 03:48:38;;;;;;;6.65;4.18;;;;;;;14.16;61.44;101677.00;5074230;28;20035;-82
2022/06/04 03:51:04;;;;;;;8.13;3.40;;;;;;;14.14;60.93;101669.03;5074262;28;20396;-83
2022/06/04 03:53:29;;;;;;;5.17;3.00;;;;;;;14.16;61.05;101666.09;5074416;28;20028;-83
2022/06/04 03:55:55;;;;;;;8.03;3.43;;;;;;;14.13;61.42;101674.69;5074238;28;20479;-83
2022/06/04 03:58:20;;;;;;;8.18;3.92;;;;;;;14.08;61.05;101666.34;5075343;28;20036;-83
2022/06/04 04:00:46;;;;;;;6.93;3.47;;;;;;;14.10;61.26;101680.56;5073729;28;20509;-82
2022/06/04 04:03:18;;;;;;;6.40;3.73;;;;;;;14.13;62.00;101680.13;5073907;28;20032;-82
2022/06/04 04:05:49;;;;;;;4.72;3.28;;;;;;;14.17;61.05;101681.38;5073672;28;20028;-83
2022/06/04 04:08:16;;;;;;;9.75;3.55;;;;;;;14.12;61.47;101678.47;5073967;28;20103;-82
2022/06/04 04:10:43;;;;;;;5.60;3.70;;;;;;;14.11;61.48;101672.16;5057422;28;20380;-82
2022/06/04 04:13:10;;;;;;;8.00;4.23;;;;;;;14.08;61.77;101686.25;5074945;28;20090;-83
2022/06/04 04:15:35;;;;;;;7.32;4.10;;;;;;;14.06;62.03;101685.66;5040582;28;20060;-83
2022/06/04 04:18:01;;;;;;;6.38;3.70;;;;;;;14.06;62.06;101687.56;5056855;28;20110;-83
2022/06/04 04:20:30;;;;;;;7.30;3.87;;;;;;;14.08;62.38;101694.44;5056753;28;20166;-82
2022/06/04 04:22:57;;;;;;;6.28;3.28;;;;;;;14.10;62.14;101688.75;5075112;28;20038;-83
2022/06/04 04:25:25;;;;;;;5.47;3.50;;;;;;;14.14;62.28;101692.75;5056367;28;20037;-83
2022/06/04 04:27:51;;;;;;;6.33;3.80;;;;;;;14.12;62.38;101701.13;5073471;28;20025;-82
2022/06/04 04:30:19;;;;;;;5.70;3.38;;;;;;;14.16;62.40;101707.84;5072600;28;20032;-82
2022/06/04 04:32:45;;;;;;;6.10;3.70;;;;;;;14.20;62.45;101703.63;5073094;28;20082;-83
2022/06/04 04:35:18;;;;;;;5.82;3.67;;;;;;;14.18;62.25;101710.34;5074271;28;20043;-83
2022/06/04 04:37:43;;;;;;;8.02;4.00;;;;;;;14.17;62.47;101709.53;5074630;28;20032;-82
2022/06/04 04:40:11;;;;;;;8.53;4.07;;;;;;;14.17;62.54;101709.53;5073053;28;20446;-82
2022/06/04 04:42:37;;;;;;;6.95;4.05;;;;;;;14.19;62.59;101707.41;5073031;28;20056;-83
2022/06/04 04:45:03;;;;;;;9.23;4.27;;;;;;;14.21;62.94;101729.84;5074203;28;20488;-83
2022/06/04 04:47:29;;;;;;;5.88;3.78;;;;;;;14.24;63.44;101725.03;5073113;28;20036;-82
2022/06/04 04:49:54;;;;;;;8.40;3.90;;;;;;;14.25;63.03;101724.81;5073100;28;20415;-82
2022/06/04 04:52:20;;;;;;;6.00;3.87;;;;;;;14.32;63.01;101731.06;5056287;28;20484;-82
2022/06/04 04:54:45;;;;;;;7.50;4.00;;;;;;;14.37;63.25;101735.88;5073887;28;20025;-82
2022/06/04 04:57:11;;;;;;;6.83;4.13;;;;;;;14.42;63.18;101730.56;5056199;28;20054;-82
2022/06/04 04:59:36;;;;;;;8.37;4.20;;;;;;;14.42;63.34;101729.75;5073950;28;20526;-83
2022/06/04 05:02:02;;;;;;;7.18;4.07;;;;;;;14.41;62.66;101723.47;5072665;28;20138;-83
2022/06/04 05:04:27;;;;;;;8.40;4.20;;;;;;;14.43;63.42;101728.69;5073934;28;20028;-83
2022/06/04 05:06:53;;;;;;;8.67;4.23;;;;;;;14.46;63.53;101726.34;5056218;28;20043;-83
2022/06/04 05:09:18;;;;;;;6.43;4.30;;;;;;;14.45;63.23;101738.31;5056112;28;20033;-82
2022/06/04 05:11:44;;;;;;;8.30;4.20;;;;;;;14.48;63.86;101734.31;5039736;28;20357;-82
2022/06/04 05:14:09;;;;;;;7.60;4.10;;;;;;;14.51;63.61;101732.00;5089703;28;20135;-82
2022/06/04 05:16:37;;;;;;;7.18;4.35;;;;;;;14.54;63.32;101737.03;5072239;28;20024;-83
2022/06/04 05:19:04;;;;;;;5.50;3.83;;;;;;;14.61;63.02;101742.44;5072495;28;20060;-82
2022/06/04 05:21:47;;;;;;;5.82;3.97;;;;;;;14.70;62.14;101743.03;5072493;28;20024;-82
2022/06/04 05:24:31;;;;;;;9.10;4.40;;;;;;;14.74;61.82;101736.91;5073467;28;20082;-82
2022/06/04 05:26:58;;;;;;;9.50;4.18;;;;;;;14.82;62.81;101738.53;5073477;28;20059;-83
2022/06/04 05:29:23;;;;;;;7.00;4.55;;;;;;;14.85;62.28;101743.56;5106387;28;20059;-83
2022/06/04 05:31:50;;;;;;;7.50;4.50;;;;;;;14.92;62.54;101748.94;5073672;28;20124;-83
2022/06/04 05:34:18;;;;;;;7.95;4.53;;;;;;;15.02;62.02;101743.00;5073621;28;20055;-83
2022/06/04 05:36:45;;;;;;;6.20;4.10;;;;;;;15.12;61.87;101751.53;5072441;28;20028;-83
2022/06/04 05:39:12;;;;;;;6.45;4.15;;;;;;;15.25;61.67;101751.41;5072200;28;20037;-83
2022/06/04 05:41:37;;;;;;;8.80;4.70;;;;;;;15.30;61.41;101753.47;5088798;28;20060;-83
2022/06/04 05:44:04;;;;;;;9.53;4.60;;;;;;;15.40;61.87;101755.69;5072180;28;20064;-83
2022/06/04 05:46:29;;;;;;;7.28;4.78;;;;;;;15.45;61.62;101761.31;5055293;28;20056;-85
2022/06/04 05:48:55;;;;;;;6.97;4.40;;;;;;;15.50;61.33;101766.09;5039322;28;20473;-88
2022/06/04 05:51:26;;;;;;;8.87;4.50;;;;;;;15.57;61.31;101759.47;5072212;28;20035;-86
2022/06/04 05:53:55;;;;;;;6.88;4.50;;;;;;;15.71;60.96;101771.13;5072077;28;20021;-85
2022/06/04 05:56:30;;;;;;;8.15;4.47;;;;;;;15.90;60.50;101762.94;5072219;28;20025;-84
2022/06/04 05:58:59;;;;;;;6.45;4.45;;;;;;;15.98;59.87;101754.44;5072007;28;20102;-85
2022/06/04 06:01:28;;;;;;;7.35;4.13;;;;;;;16.06;59.41;101762.34;5072114;28;20122;-86
2022/06/04 06:04:04;;;;;;;8.33;4.50;;;;;;;16.08;59.25;101757.47;5073309;28;20492;-87
2022/06/04 06:06:34;;;;;;;8.70;4.75;;;;;;;16.20;59.08;101762.19;5072227;28;20028;-87
2022/06/04 06:09:06;;;;;;;7.07;4.88;;;;;;;16.33;59.02;101763.88;5072185;28;20021;-87
2022/06/04 06:11:36;;;;;;;9.10;4.38;;;;;;;16.43;59.01;101762.28;5072088;28;20025;-87
2022/06/04 06:14:24;;;;;;;10.85;4.80;;;;;;;16.55;58.63;101764.19;5056058;28;20177;-87
2022/06/04 06:16:58;;;;;;;9.27;4.77;;;;;;;16.66;58.25;101761.50;5072359;28;20051;-88
2022/06/04 06:19:33;;;;;;;8.95;4.85;;;;;;;16.78;57.69;101758.78;5071825;28;20036;-88
2022/06/04 06:21:59;;;;;;;7.75;4.78;;;;;;;16.85;57.53;101753.22;5072330;28;20028;-88
2022/06/04 06:24:29;;;;;;;8.43;4.30;;;;;;;16.94;57.27;101754.56;5073343;28;20047;-87
2022/06/04 06:26:57;;;;;;;8.02;5.35;;;;;;;16.97;56.88;101756.00;5071887;28;20040;-87
2022/06/04 06:29:26;;;;;;;8.55;4.90;;;;;;;17.06;56.89;101754.56;5071921;28;20036;-88
2022/06/04 06:31:53;;;;;;;7.25;5.00;;;;;;;17.15;56.60;101766.84;5071849;28;20027;-87
2022/06/04 06:34:22;;;;;;;10.90;5.22;;;;;;;17.25;56.36;101774.50;5072103;28;20090;-88
2022/06/04 06:36:47;;;;;;;6.90;4.97;;;;;;;17.31;56.00;101769.97;5073843;28;20044;-88
2022/06/04 06:39:16;;;;;;;9.52;5.10;;;;;;;17.44;55.41;101780.72;5071897;28;20392;-88
2022/06/04 06:41:47;;;;;;;12.73;5.18;;;;;;;17.48;55.49;101779.16;5072033;28;20136;-87
2022/06/04 06:44:17;;;;;;;9.07;4.77;;;;;;;17.60;55.15;101779.16;5072624;28;20036;-87
2022/06/04 06:46:46;;;;;;;6.97;5.10;;;;;;;17.70;54.68;101789.50;5071255;28;20053;-86
2022/06/04 06:49:20;;;;;;;9.55;5.47;;;;;;;17.71;54.59;101783.78;5071667;28;20028;-87
2022/06/04 06:51:49;;;;;;;6.53;5.20;;;;;;;17.67;55.11;101792.75;5072084;28;20111;-87
2022/06/04 06:54:16;;;;;;;8.88;5.60;;;;;;;17.75;54.64;101791.56;5074677;28;20047;-87
2022/06/04 06:56:44;;;;;;;8.10;5.60;;;;;;;17.73;54.68;101791.81;5075052;28;20086;-87
2022/06/04 06:59:34;;;;;;;13.85;5.95;;;;;;;17.65;54.67;101786.66;5075932;28;20020;-89
2022/06/04 07:02:03;;;;;;;9.55;5.97;;;;;;;17.60;54.67;101787.41;5075294;28;20028;-87
2022/06/04 07:04:31;;;;;;;9.95;5.40;;;;;;;17.63;54.33;101775.94;5074815;28;20116;-86
2022/06/04 07:07:00;;;;;;;7.70;5.55;;;;;;;17.63;54.47;101784.16;5076133;28;20020;-85
2022/06/04 07:09:30;;;;;;;12.40;6.43;;;;;;;17.66;54.76;101786.44;5076117;28;20062;-83
2022/06/04 07:11:56;;;;;;;8.43;5.68;;;;;;;17.68;54.54;101787.00;5076073;28;20024;-83
2022/06/04 07:14:25;;;;;;;12.98;6.38;;;;;;;17.61;54.49;101790.97;5057973;28;20037;-83
2022/06/04 07:16:52;;;;;;;14.25;6.30;;;;;;;17.66;54.51;101786.44;5074870;28;20067;-83
2022/06/04 07:19:21;;;;;;;13.40;6.10;;;;;;;17.72;54.25;101792.88;5074442;28;20036;-83
2022/06/04 07:21:48;;;;;;;7.70;5.40;;;;;;;17.82;54.13;101801.34;5074585;28;20028;-85
2022/06/04 07:24:14;;;;;;;9.98;5.80;;;;;;;17.81;53.76;101793.34;5057959;28;20115;-85
2022/06/04 07:26:40;;;;;;;8.40;6.22;;;;;;;17.75;54.33;101795.13;5075863;28;20024;-82
2022/06/04 07:29:06;;;;;;;18.85;6.32;;;;;;;17.78;54.36;101794.66;5075414;28;20035;-83
2022/06/04 07:31:31;;;;;;;10.33;6.17;;;;;;;17.85;54.25;101802.78;5058072;28;20037;-83
2022/06/04 07:33:58;;;;;;;10.50;6.47;;;;;;;17.80;54.61;101802.63;5057233;28;20036;-83
2022/06/04 07:36:45;;;;;;;10.60;6.47;;;;;;;17.81;54.24;101802.41;5057647;28;20048;-85
2022/06/04 07:39:17;;;;;;;11.18;6.18;;;;;;;17.81;54.32;101804.31;5075520;28;20102;-83
2022/06/04 07:41:47;;;;;;;11.90;6.43;;;;;;;17.83;54.12;101818.63;5074577;28;20052;-83
2022/06/04 07:44:16;;;;;;;12.25;6.88;;;;;;;17.83;54.89;101821.38;5074027;28;20028;-83
2022/06/04 07:46:49;;;;;;;12.32;6.65;;;;;;;17.72;54.55;101823.06;5073219;28;20084;-85
2022/06/04 07:49:18;;;;;;;11.40;7.07;;;;;;;17.76;54.45;101821.50;5058253;28;20128;-85
2022/06/04 07:51:45;;;;;;;8.63;6.40;;;;;;;17.77;54.77;101811.34;5074015;28;20550;-84
2022/06/04 07:54:11;;;;;;;14.88;6.78;;;;;;;17.83;54.67;101818.63;5057192;28;20032;-85
2022/06/04 07:56:38;;;;;;;10.27;6.57;;;;;;;17.97;54.29;101806.34;5074037;28;20432;-85
2022/06/04 07:59:13;;;;;;;11.07;6.10;;;;;;;17.94;54.05;101811.47;5073877;28;20031;-85
2022/06/04 08:01:39;;;;;;;11.67;6.30;;;;;;;17.96;53.92;101810.16;5073895;28;20040;-83
2022/06/04 08:04:14;;;;;;;9.05;6.55;;;;;;;17.87;53.61;101811.59;5073552;28;20039;-84
2022/06/04 08:06:42;;;;;;;11.35;6.65;;;;;;;17.93;53.98;101818.06;5071767;28;20025;-84
2022/06/04 08:09:07;;;;;;;9.67;5.90;;;;;;;17.95;53.73;101816.75;5057007;28;20135;-84
2022/06/04 08:11:36;;;;;;;8.55;6.18;;;;;;;18.00;53.41;101819.59;5062400;28;20549;-84
2022/06/04 08:14:13;;;;;;;11.00;6.30;;;;;;;18.04;53.83;101814.44;5072723;28;20032;-84
2022/06/04 08:16:41;;;;;;;10.85;6.72;;;;;;;18.03;53.83;101812.78;5073811;28;20515;-84
2022/06/04 08:19:08;;;;;;;11.63;6.33;;;;;;;18.04;53.46;101806.19;5073379;28;20020;-84
2022/06/04 08:21:36;;;;;;;9.18;6.13;;;;;;;18.10;53.67;101799.75;5074661;28;20377;-84
2022/06/04 08:24:02;;;;;;;15.02;7.28;;;;;;;18.17;53.89;101802.34;5071759;28;20094;-84
2022/06/04 08:26:28;;;;;;;13.50;7.00;;;;;;;18.11;53.80;101798.66;5072686;28;20033;-85
2022/06/04 08:28:54;;;;;;;8.50;6.07;;;;;;;18.27;53.74;101799.00;5074350;28;20040;-85
2022/06/04 08:31:19;;;;;;;10.68;6.53;;;;;;;18.38;53.13;101779.72;5073114;28;20115;-85
2022/06/04 08:33:45;;;;;;;11.10;6.70;;;;;;;18.32;53.09;101777.97;5073354;28;20117;-85
2022/06/04 08:36:13;;;;;;;8.57;6.60;;;;;;;18.47;53.12;101787.56;5051564;28;20484;-85
2022/06/04 08:38:39;;;;;;;9.80;6.60;;;;;;;18.53;52.70;101795.66;5052872;28;20029;-85
2022/06/04 08:41:19;;;;;;;12.50;7.18;;;;;;;18.75;52.09;101794.97;5069874;28;20499;-85
2022/06/04 08:43:59;;;;;;;9.85;6.90;;;;;;;18.97;51.84;101802.50;5071169;28;20094;-84
2022/06/04 08:46:50;;;;;;;14.90;7.07;;;;;;;19.33;51.24;101803.09;5072828;28;20200;-84
2022/06/04 08:49:44;;;;;;;13.20;7.47;;;;;;;19.65;50.15;101806.06;5074129;28;20372;-84
2022/06/04 08:52:20;;;;;;;13.23;7.40;;;;;;;19.87;49.73;101808.88;5063679;28;20097;-84
2022/06/04 08:57:50;;;;;;;9.35;6.38;;;;;;;20.59;48.59;101803.38;5073094;28;20123;-83
2022/06/04 09:00:30;;;;;;;9.98;7.10;;;;;;;20.79;47.57;101814.66;5072739;28;20024;-83
2022/06/04 09:03:05;;;;;;;9.63;7.00;;;;;;;21.13;46.93;101810.81;5072703;28;20029;-83
2022/06/04 09:05:49;;;;;;;8.60;6.13;;;;;;;21.37;46.21;101814.84;5072538;28;20032;-84
2022/06/04 09:08:21;;;;;;;8.82;7.10;;;;;;;21.58;45.96;101815.03;5072597;28;20044;-83
2022/06/04 09:10:49;;;;;;;8.35;6.45;;;;;;;21.82;44.94;101814.63;5073718;28;20028;-83
2022/06/04 09:13:23;;;;;;;8.93;6.88;;;;;;;21.98;44.60;101808.09;5072465;28;20031;-84
2022/06/04 09:15:51;;;;;;;9.40;6.40;;;;;;;22.16;44.06;101801.25;5072046;28;20025;-83
2022/06/04 09:18:24;;;;;;;12.00;6.88;;;;;;;22.40;43.95;101807.16;5072556;28;20037;-83
2022/06/04 09:20:59;;;;;;;10.60;7.15;;;;;;;22.56;43.55;101804.44;5072500;28;20032;-83
2022/06/04 09:23:41;;;;;;;11.98;7.40;;;;;;;22.71;43.41;101809.19;5073649;28;20060;-84
2022/06/04 09:26:15;;;;;;;9.90;6.72;;;;;;;22.82;43.67;101802.53;5072201;28;20025;-84
2022/06/04 09:28:52;;;;;;;8.00;6.83;;;;;;;22.94;42.97;101802.25;5072410;28;20039;-84
2022/06/04 09:31:45;;;;;;;10.35;6.75;;;;;;;23.05;42.28;101809.47;5072297;28;20481;-84
2022/06/04 09:34:22;;;;;;;11.77;7.53;;;;;;;23.16;42.21;101813.09;5072215;28;20066;-84
2022/06/04 09:36:49;;;;;;;10.90;8.00;;;;;;;23.23;41.41;101810.06;5073869;28;20032;-84
2022/06/04 09:39:22;;;;;;;12.63;7.45;;;;;;;23.68;41.45;101810.25;5073391;28;20063;-84
2022/06/04 09:42:04;;;;;;;12.10;7.17;;;;;;;23.99;41.43;101811.00;5072018;28;20090;-84
2022/06/04 09:44:32;;;;;;;10.43;6.90;;;;;;;24.02;40.47;101812.38;5073238;28;20047;-84
2022/06/04 09:47:05;;;;;;;8.38;7.13;;;;;;;24.06;40.35;101805.19;5073305;28;20040;-84
2022/06/04 09:49:42;;;;;;;10.68;7.45;;;;;;;24.03;40.49;101812.09;5071950;28;20032;-84
2022/06/04 09:52:36;;;;;;;9.88;7.20;;;;;;;24.07;40.56;101815.97;5073489;28;20025;-84
2022/06/04 09:55:15;;;;;;;9.60;7.20;;;;;;;23.95;39.87;101821.84;5071718;28;20149;-85
2022/06/04 09:57:40;;;;;;;12.63;7.40;;;;;;;24.14;39.97;101815.69;5071914;28;20025;-84
2022/06/04 10:00:30;;;;;;;10.70;7.40;;;;;;;24.51;40.25;101806.06;5055148;28;20047;-84
2022/06/04 10:03:01;;;;;;;10.85;7.28;;;;;;;24.60;39.14;101812.69;5072248;28;20021;-84
2022/06/04 10:05:30;;;;;;;9.52;7.72;;;;;;;24.72;38.47;101817.06;5073197;28;20101;-84
2022/06/04 10:07:56;;;;;;;14.27;8.27;;;;;;;24.92;37.70;101824.41;5073364;28;20107;-84
2022/06/04 10:10:29;;;;;;;11.05;7.75;;;;;;;24.95;38.13;101835.75;5073133;28;20024;-84
2022/06/04 10:15:54;;;;;;;14.95;8.13;;;;;;;25.12;37.68;101821.44;5073460;28;20044;-84
2022/06/04 10:18:29;;;;;;;10.77;8.47;;;;;;;25.06;38.26;101819.84;5071845;28;20032;-84
2022/06/04 10:21:03;;;;;;;13.27;7.57;;;;;;;25.12;38.01;101823.41;5071969;28;20058;-84
2022/06/04 10:23:39;;;;;;;12.02;8.18;;;;;;;25.13;37.74;101819.53;5071788;28;20028;-84
2022/06/04 10:26:20;;;;;;;12.25;7.57;;;;;;;25.15;37.75;101818.09;5072825;28;20028;-85
2022/06/04 10:29:24;;;;;;;11.85;7.80;;;;;;;25.08;38.39;101820.38;5074774;28;20044;-85
2022/06/04 10:31:53;;;;;;;9.97;8.03;;;;;;;25.21;37.59;101824.44;5075561;28;20541;-84
2022/06/04 10:34:50;;;;;;;11.23;7.60;;;;;;;25.56;37.45;101823.28;5075756;28;20123;-84
2022/06/04 10:37:35;;;;;;;10.02;7.97;;;;;;;25.82;37.53;101824.97;5076781;28;20029;-84
2022/06/04 10:40:28;;;;;;;13.18;7.95;;;;;;;25.79;37.41;101820.81;5075129;28;20032;-85
2022/06/04 10:43:02;;;;;;;12.32;7.90;;;;;;;25.58;37.21;101823.00;5076577;28;20487;-84
2022/06/04 10:45:40;;;;;;;12.60;7.73;;;;;;;25.79;36.93;101825.56;5074928;28;20051;-84
2022/06/04 10:48:15;;;;;;;10.45;8.02;;;;;;;26.06;37.07;101828.59;5074855;28;20036;-84
2022/06/04 10:54:11;;;;;;;11.55;8.80;;;;;;;26.51;36.33;101841.38;5076663;28;20446;-86
2022/06/04 10:56:58;;;;;;;12.05;7.25;;;;;;;26.99;35.78;101827.31;5075018;28;20021;-90
2022/06/04 10:59:41;;;;;;;;;;;;;;;;;;;;;
2022/06/04 11:02:18;;;;;;;10.80;7.25;;;;;;;28.38;33.35;101821.91;5076939;28;20024;-88
2022/06/04 11:04:50;;;;;;;13.13;8.30;;;;;;;28.79;32.57;101821.00;5075148;28;20032;-88
2022/06/04 11:07:15;;;;;;;10.75;8.50;;;;;;;29.14;31.64;101823.22;5074563;28;20036;-86
2022/06/04 11:09:44;;;;;;;11.87;8.60;;;;;;;29.67;30.64;101822.38;5076022;28;20396;-87
2022/06/04 11:12:28;;;;;;;11.10;7.68;;;;;;;30.41;30.25;101815.25;5074802;28;20442;-88
2022/06/04 11:15:20;;;;;;;9.60;7.63;;;;;;;30.97;30.24;101825.75;5074577;28;20021;-87
2022/06/04 11:18:00;;;;;;;9.30;7.80;;;;;;;31.08;28.06;101826.28;5069699;28;20032;-87
2022/06/04 11:20:47;;;;;;;9.80;7.63;;;;;;;31.56;28.74;101827.97;5075128;28;20078;-87
2022/06/04 11:23:24;;;;;;;11.32;8.50;;;;;;;31.54;27.97;101835.88;5074501;28;20033;-87
2022/06/04 11:26:07;;;;;;;10.25;7.93;;;;;;;31.57;27.36;101820.41;5074121;28;20062;-88
2022/06/04 11:28:40;;;;;;;8.60;7.53;;;;;;;32.87;26.59;101818.75;5074854;28;20078;-87
2022/06/04 11:31:59;;;;;;;10.00;7.32;;;;;;;35.34;24.89;101816.94;5074501;28;20044;-89
2022/06/04 11:34:50;;;;;;;9.53;7.87;;;;;;;36.65;22.95;101822.47;5075165;28;20492;-88
2022/06/04 11:37:30;;;;;;;9.70;8.02;;;;;;;36.10;22.24;101811.97;5074051;28;20031;-86
2022/06/04 11:40:11;;;;;;;9.88;8.07;;;;;;;37.10;22.08;101803.97;5073088;28;20040;-85
2022/06/04 11:43:29;;;;;;;10.32;8.77;;;;;;;39.56;20.79;101796.81;5074053;28;20028;-85
2022/06/04 11:46:33;;;;;;;10.50;7.80;;;;;;;41.23;18.68;101793.53;5044509;28;20052;-85
2022/06/04 11:49:01;;;;;;;11.00;8.03;;;;;;;42.46;16.60;101782.72;5073950;28;20036;-85
2022/06/04 11:51:33;;;;;;;8.52;7.45;;;;;;;42.85;16.14;101778.88;5074049;28;20082;-84
2022/06/04 11:54:17;;;;;;;9.35;8.38;;;;;;;43.83;15.69;101768.28;5073514;28;20043;-85
2022/06/04 11:57:22;;;;;;;11.32;8.73;;;;;;;44.40;15.36;101771.66;5077002;28;20092;-86
2022/06/04 11:59:47;;;;;;;9.80;8.32;;;;;;;44.70;13.80;101772.94;5075406;28;20032;-86
2022/06/04 12:02:18;;;;;;;10.23;8.90;;;;;;;44.85;13.81;101768.59;5073777;28;20035;-85
2022/06/04 12:05:20;;;;;;;11.60;8.23;;;;;;;46.09;14.63;101756.56;5073681;28;20032;-86